createdAt,value
2023-05-01T00:01:00.980Z,55.64
2023-05-01T00:02:03.285Z,55.85
2023-05-01T00:03:05.604Z,55.66
2023-05-01T00:04:08.143Z,55.74
2023-05-01T00:05:11.275Z,55.59
2023-05-01T00:06:13.802Z,55.65
2023-05-01T00:07:16.632Z,55.59
2023-05-01T00:08:19.384Z,55.70
2023-05-01T00:09:21.667Z,55.62
2023-05-01T00:10:24.016Z,55.87
2023-05-01T00:11:26.675Z,56.05
2023-05-01T00:12:29.028Z,55.78
2023-05-01T00:13:32.370Z,55.92
2023-05-01T00:14:34.618Z,55.87
2023-05-01T00:15:37.042Z,55.88
2023-05-01T00:16:39.415Z,55.94
2023-05-01T00:17:41.744Z,56.05
2023-05-01T00:18:44.315Z,55.98
2023-05-01T00:19:46.649Z,56.10
2023-05-01T00:20:48.925Z,56.04
2023-05-01T00:21:52.723Z,56.15
2023-05-01T00:22:55.654Z,56.11
2023-05-01T00:23:57.963Z,56.10
2023-05-01T00:25:00.392Z,56.21
2023-05-01T00:26:02.885Z,56.14
2023-05-01T00:27:05.217Z,56.01
2023-05-01T00:28:07.824Z,56.11
2023-05-01T00:29:10.133Z,56.24
2023-05-01T00:30:12.660Z,56.14
2023-05-01T00:31:14.986Z,55.97
2023-05-01T00:32:17.489Z,56.10
2023-05-01T00:33:19.833Z,56.06
2023-05-01T00:34:22.463Z,56.19
2023-05-01T00:35:24.812Z,56.14
2023-05-01T00:36:27.085Z,56.22
2023-05-01T00:37:29.329Z,56.13
2023-05-01T00:38:31.839Z,56.36
2023-05-01T00:39:34.132Z,56.31
2023-05-01T00:40:45.785Z,56.37
2023-05-01T00:41:48.202Z,56.30
2023-05-01T00:42:50.496Z,56.31
2023-05-01T00:43:52.733Z,56.43
2023-05-01T00:44:55.006Z,56.51
2023-05-01T00:45:57.343Z,56.43
2023-05-01T00:47:02.454Z,56.50
2023-05-01T00:48:06.040Z,56.50
2023-05-01T00:49:08.354Z,56.51
2023-05-01T00:50:11.281Z,56.44
2023-05-01T00:51:14.162Z,56.43
2023-05-01T00:52:16.777Z,56.42
2023-05-01T00:53:19.243Z,56.55
2023-05-01T00:54:23.326Z,56.66
2023-05-01T00:55:26.932Z,56.68
2023-05-01T00:56:32.307Z,56.74
2023-05-01T00:57:34.759Z,56.83
2023-05-01T00:58:38.509Z,57.08
2023-05-01T00:59:41.561Z,57.08
2023-05-01T01:00:44.453Z,57.08
2023-05-01T01:01:47.562Z,57.21
2023-05-01T01:02:50.290Z,57.27
2023-05-01T01:03:52.772Z,57.32
2023-05-01T01:04:55.377Z,57.38
2023-05-01T01:06:08.557Z,57.59
2023-05-01T01:07:19.447Z,57.48
2023-05-01T01:08:43.729Z,57.30
2023-05-01T01:09:52.249Z,57.47
2023-05-01T01:11:01.837Z,57.58
2023-05-01T01:12:12.844Z,57.55
2023-05-01T01:13:27.690Z,57.52
2023-05-01T01:14:45.695Z,57.50
2023-05-01T01:15:53.568Z,57.42
2023-05-01T01:17:10.784Z,57.38
2023-05-01T01:18:36.654Z,57.41
2023-05-01T01:19:50.828Z,57.52
2023-05-01T01:21:12.954Z,57.60
2023-05-01T01:22:21.315Z,57.59
2023-05-01T01:24:08.669Z,57.38
2023-05-01T01:25:30.186Z,57.56
2023-05-01T01:27:11.494Z,57.36
2023-05-01T01:28:32.976Z,57.65
2023-05-01T01:29:57.633Z,57.57
2023-05-01T01:31:14.078Z,57.73
2023-05-01T01:33:14.231Z,57.31
2023-05-01T01:34:33.617Z,57.44
2023-05-01T01:35:37.109Z,57.49
2023-05-01T01:36:43.987Z,57.53
2023-05-01T01:38:00.742Z,57.66
2023-05-01T01:39:29.171Z,57.60
2023-05-01T01:40:44.173Z,57.62
2023-05-01T01:41:50.664Z,57.74
2023-05-01T01:43:03.189Z,57.67
2023-05-01T01:44:09.160Z,57.81
2023-05-01T01:45:21.534Z,57.83
2023-05-01T01:46:25.625Z,57.87
2023-05-01T01:47:33.349Z,57.95
2023-05-01T01:48:41.654Z,57.94
2023-05-01T01:49:48.517Z,58.00
2023-05-01T01:50:53.637Z,57.94
2023-05-01T01:51:59.165Z,57.77
2023-05-01T01:53:02.565Z,57.84
2023-05-01T01:54:05.744Z,58.02
2023-05-01T01:55:12.484Z,57.92
2023-05-01T01:56:15.892Z,58.00
2023-05-01T01:57:21.019Z,58.13
2023-05-01T01:58:26.514Z,57.96
2023-05-01T01:59:33.696Z,58.04
2023-05-01T02:00:39.597Z,57.93
2023-05-01T02:01:43.325Z,58.10
2023-05-01T02:02:48.066Z,57.88
2023-05-01T02:03:53.429Z,58.02
2023-05-01T02:04:57.381Z,58.05
2023-05-01T02:06:00.850Z,57.98
2023-05-01T02:07:04.602Z,58.15
2023-05-01T02:08:08.646Z,58.02
2023-05-01T02:09:12.674Z,58.05
2023-05-01T02:10:16.351Z,58.08
2023-05-01T02:11:21.328Z,58.17
2023-05-01T02:12:27.116Z,58.26
2023-05-01T02:13:31.634Z,58.20
2023-05-01T02:14:35.507Z,58.10
2023-05-01T02:15:40.445Z,58.27
2023-05-01T02:16:44.187Z,58.24
2023-05-01T02:17:47.804Z,58.24
2023-05-01T02:18:50.724Z,58.17
2023-05-01T02:19:55.658Z,58.04
2023-05-01T02:20:58.969Z,58.27
2023-05-01T02:22:03.096Z,58.19
2023-05-01T02:23:07.991Z,58.25
2023-05-01T02:24:11.981Z,58.40
2023-05-01T02:25:15.233Z,58.47
2023-05-01T02:26:19.035Z,58.42
2023-05-01T02:27:24.469Z,58.64
2023-05-01T02:28:30.081Z,58.58
2023-05-01T02:29:32.366Z,58.62
2023-05-01T02:30:36.475Z,58.87
2023-05-01T02:31:38.910Z,58.78
2023-05-01T02:32:41.529Z,58.75
2023-05-01T02:33:43.828Z,58.87
2023-05-01T02:34:46.177Z,58.97
2023-05-01T02:35:49.787Z,59.06
2023-05-01T02:36:53.910Z,59.24
2023-05-01T02:37:56.753Z,59.14
2023-05-01T02:39:00.229Z,59.22
2023-05-01T02:40:03.891Z,59.18
2023-05-01T02:41:08.829Z,59.16
2023-05-01T02:42:12.883Z,59.06
2023-05-01T02:43:18.880Z,59.43
2023-05-01T02:44:22.593Z,59.43
2023-05-01T02:45:26.069Z,59.51
2023-05-01T02:46:29.738Z,59.53
2023-05-01T02:47:37.386Z,59.68
2023-05-01T02:48:41.300Z,59.54
2023-05-01T02:49:45.081Z,59.59
2023-05-01T02:50:49.497Z,59.64
2023-05-01T02:51:52.579Z,59.59
2023-05-01T02:52:55.192Z,59.77
2023-05-01T02:54:13.932Z,59.82
2023-05-01T02:55:17.614Z,60.00
2023-05-01T02:56:20.195Z,60.08
2023-05-01T02:57:23.655Z,60.16
2023-05-01T02:58:26.411Z,60.28
2023-05-01T02:59:28.750Z,60.14
2023-05-01T03:00:31.035Z,60.42
2023-05-01T03:01:33.923Z,60.38
2023-05-01T03:02:36.438Z,60.56
2023-05-01T03:03:38.780Z,60.67
2023-05-01T03:04:41.219Z,60.61
2023-05-01T03:05:43.683Z,60.80
2023-05-01T03:06:46.138Z,60.87
2023-05-01T03:07:48.657Z,60.67
2023-05-01T03:08:50.970Z,60.73
2023-05-01T03:09:53.300Z,60.85
2023-05-01T03:10:55.614Z,60.76
2023-05-01T03:11:58.147Z,60.93
2023-05-01T03:13:00.891Z,60.94
2023-05-01T03:14:03.204Z,60.86
2023-05-01T03:15:06.162Z,61.13
2023-05-01T03:16:08.617Z,61.03
2023-05-01T03:17:11.020Z,60.92
2023-05-01T03:18:13.459Z,61.09
2023-05-01T03:19:15.799Z,61.05
2023-05-01T03:20:18.213Z,61.01
2023-05-01T03:21:20.824Z,60.82
2023-05-01T03:22:23.220Z,60.77
2023-05-01T03:23:25.995Z,60.94
2023-05-01T03:24:28.466Z,60.81
2023-05-01T03:25:30.787Z,60.96
2023-05-01T03:26:33.326Z,60.93
2023-05-01T03:27:35.628Z,60.92
2023-05-01T03:28:37.993Z,60.85
2023-05-01T03:29:40.310Z,60.93
2023-05-01T03:30:42.810Z,60.86
2023-05-01T03:31:45.346Z,60.93
2023-05-01T03:32:47.900Z,60.89
2023-05-01T03:33:56.829Z,60.97
2023-05-01T03:34:59.213Z,61.03
2023-05-01T03:36:05.829Z,61.31
2023-05-01T03:37:09.702Z,61.46
2023-05-01T03:38:13.003Z,61.38
2023-05-01T03:39:33.823Z,61.31
2023-05-01T03:40:59.594Z,61.50
2023-05-01T03:42:07.505Z,61.56
2023-05-01T03:43:15.602Z,61.29
2023-05-01T03:44:17.941Z,61.61
2023-05-01T03:45:20.671Z,61.64
2023-05-01T03:46:23.765Z,61.62
2023-05-01T03:47:26.365Z,61.64
2023-05-01T03:48:28.924Z,61.60
2023-05-01T03:49:32.012Z,61.65
2023-05-01T03:50:34.312Z,61.49
2023-05-01T03:51:37.065Z,61.46
2023-05-01T03:52:39.410Z,61.37
2023-05-01T03:53:41.750Z,61.49
2023-05-01T03:54:45.889Z,61.55
2023-05-01T03:56:08.597Z,61.54
2023-05-01T03:57:10.999Z,61.67
2023-05-01T03:58:13.425Z,61.77
2023-05-01T03:59:15.899Z,61.86
2023-05-01T04:00:18.393Z,61.65
2023-05-01T04:01:22.612Z,61.56
2023-05-01T04:02:25.164Z,61.50
2023-05-01T04:03:27.614Z,61.64
2023-05-01T04:04:30.390Z,61.71
2023-05-01T04:05:34.350Z,61.58
2023-05-01T04:06:38.457Z,61.48
2023-05-01T04:07:42.279Z,61.65
2023-05-01T04:08:44.732Z,61.66
2023-05-01T04:09:48.581Z,61.89
2023-05-01T04:10:51.148Z,61.87
2023-05-01T04:11:53.561Z,61.92
2023-05-01T04:12:55.858Z,61.76
2023-05-01T04:13:58.147Z,61.92
2023-05-01T04:15:00.752Z,61.81
2023-05-01T04:16:03.389Z,61.88
2023-05-01T04:17:06.426Z,61.72
2023-05-01T04:18:11.771Z,61.72
2023-05-01T04:19:16.193Z,61.63
2023-05-01T04:20:20.839Z,61.66
2023-05-01T04:21:23.302Z,61.72
2023-05-01T04:22:27.734Z,61.69
2023-05-01T04:23:30.007Z,61.67
2023-05-01T04:24:34.671Z,61.69
2023-05-01T04:25:37.339Z,61.65
2023-05-01T04:26:45.799Z,61.64
2023-05-01T04:27:48.209Z,61.89
2023-05-01T04:28:51.221Z,61.71
2023-05-01T04:29:58.271Z,61.62
2023-05-01T04:31:01.091Z,61.71
2023-05-01T04:32:03.556Z,61.65
2023-05-01T04:33:11.704Z,61.58
2023-05-01T04:34:15.235Z,61.63
2023-05-01T04:35:17.519Z,61.38
2023-05-01T04:36:20.524Z,61.31
2023-05-01T04:37:22.859Z,61.43
2023-05-01T04:38:25.184Z,61.18
2023-05-01T04:39:30.595Z,61.24
2023-05-01T04:40:36.125Z,61.06
2023-05-01T04:41:38.369Z,61.06
2023-05-01T04:42:41.369Z,60.92
2023-05-01T04:43:47.238Z,60.96
2023-05-01T04:44:53.195Z,60.73
2023-05-01T04:45:57.092Z,60.54
2023-05-01T04:46:59.475Z,60.53
2023-05-01T04:48:01.908Z,60.43
2023-05-01T04:49:04.265Z,60.44
2023-05-01T04:50:07.137Z,60.41
2023-05-01T04:51:09.517Z,60.46
2023-05-01T04:52:12.712Z,60.32
2023-05-01T04:53:35.367Z,60.28
2023-05-01T04:54:38.484Z,60.32
2023-05-01T04:55:40.980Z,60.22
2023-05-01T04:56:51.360Z,60.17
2023-05-01T04:57:53.690Z,60.06
2023-05-01T04:58:56.307Z,59.99
2023-05-01T05:00:01.487Z,59.89
2023-05-01T05:01:05.529Z,59.66
2023-05-01T05:02:08.995Z,59.36
2023-05-01T05:03:11.412Z,59.17
2023-05-01T05:04:13.830Z,59.13
2023-05-01T05:05:16.228Z,59.04
2023-05-01T05:06:18.540Z,58.93
2023-05-01T05:07:21.398Z,58.81
2023-05-01T05:08:42.756Z,58.60
2023-05-01T05:09:46.118Z,58.10
2023-05-01T05:10:48.442Z,57.89
2023-05-01T05:12:11.221Z,57.48
2023-05-01T05:13:13.891Z,57.11
2023-05-01T05:14:16.347Z,57.03
2023-05-01T05:15:18.768Z,56.68
2023-05-01T05:16:21.094Z,56.49
2023-05-01T05:17:23.496Z,56.26
2023-05-01T05:18:25.923Z,56.04
2023-05-01T05:19:28.244Z,55.83
2023-05-01T05:20:30.657Z,55.68
2023-05-01T05:21:33.203Z,55.61
2023-05-01T05:22:39.013Z,55.42
2023-05-01T05:23:56.319Z,55.36
2023-05-01T05:25:04.545Z,55.22
2023-05-01T05:26:06.960Z,55.25
2023-05-01T05:27:09.548Z,55.10
2023-05-01T05:28:11.842Z,54.83
2023-05-01T05:29:14.617Z,54.59
2023-05-01T05:30:17.126Z,54.61
2023-05-01T05:31:20.948Z,54.55
2023-05-01T05:32:23.927Z,54.53
2023-05-01T05:33:26.452Z,54.59
2023-05-01T05:34:28.712Z,54.36
2023-05-01T05:35:31.386Z,53.99
2023-05-01T05:36:33.936Z,54.06
2023-05-01T05:37:36.227Z,54.07
2023-05-01T05:38:38.897Z,54.06
2023-05-01T05:39:42.776Z,54.01
2023-05-01T05:40:45.206Z,54.04
2023-05-01T05:41:49.419Z,54.05
2023-05-01T05:42:51.940Z,53.73
2023-05-01T05:43:55.607Z,53.61
2023-05-01T05:44:57.965Z,53.47
2023-05-01T05:46:01.109Z,53.26
2023-05-01T05:47:04.878Z,53.24
2023-05-01T05:48:08.671Z,53.05
2023-05-01T05:49:15.599Z,52.73
2023-05-01T05:50:17.976Z,52.39
2023-05-01T05:51:21.856Z,52.39
2023-05-01T05:52:24.143Z,52.04
2023-05-01T05:53:28.088Z,51.80
2023-05-01T05:54:31.530Z,51.54
2023-05-01T05:55:34.009Z,51.53
2023-05-01T05:56:40.500Z,51.18
2023-05-01T05:57:43.254Z,50.85
2023-05-01T05:58:48.806Z,50.43
2023-05-01T05:59:51.412Z,50.25
2023-05-01T06:00:57.546Z,50.06
2023-05-01T06:02:01.039Z,49.92
2023-05-01T06:03:07.630Z,49.77
2023-05-01T06:04:12.088Z,49.88
2023-05-01T06:05:16.213Z,49.94
2023-05-01T06:06:19.903Z,49.67
2023-05-01T06:07:23.250Z,49.52
2023-05-01T06:08:26.115Z,49.21
2023-05-01T06:09:28.479Z,48.68
2023-05-01T06:10:31.693Z,48.78
2023-05-01T06:11:34.046Z,48.65
2023-05-01T06:12:37.880Z,48.38
2023-05-01T06:13:43.599Z,47.87
2023-05-01T06:14:46.052Z,47.83
2023-05-01T06:15:49.201Z,47.86
2023-05-01T06:16:52.072Z,47.72
2023-05-01T06:17:54.500Z,47.33
2023-05-01T06:18:57.318Z,47.07
2023-05-01T06:20:00.840Z,46.91
2023-05-01T06:21:03.727Z,46.55
2023-05-01T06:22:07.922Z,46.50
2023-05-01T06:23:16.600Z,46.13
2023-05-01T06:24:41.744Z,45.80
2023-05-01T06:25:45.591Z,45.96
2023-05-01T06:26:48.243Z,45.91
2023-05-01T06:27:51.512Z,46.06
2023-05-01T06:28:56.449Z,45.85
2023-05-01T06:29:59.539Z,45.61
2023-05-01T06:31:02.044Z,45.69
2023-05-01T06:32:08.263Z,45.41
2023-05-01T06:33:11.051Z,45.23
2023-05-01T06:34:15.390Z,45.10
2023-05-01T06:35:23.912Z,45.05
2023-05-01T06:36:28.094Z,45.10
2023-05-01T06:37:30.690Z,45.00
2023-05-01T06:38:33.344Z,44.91
2023-05-01T06:39:39.278Z,44.97
2023-05-01T06:40:41.886Z,45.24
2023-05-01T06:41:47.248Z,45.08
2023-05-01T06:42:50.282Z,44.97
2023-05-01T06:43:52.849Z,44.84
2023-05-01T06:44:55.117Z,44.75
2023-05-01T06:45:58.187Z,44.97
2023-05-01T06:47:01.990Z,44.63
2023-05-01T06:48:04.962Z,44.35
2023-05-01T06:49:08.088Z,44.10
2023-05-01T06:50:10.803Z,44.29
2023-05-01T06:51:16.174Z,44.07
2023-05-01T06:52:18.908Z,43.51
2023-05-01T06:53:22.679Z,43.09
2023-05-01T06:54:24.985Z,42.94
2023-05-01T06:55:28.453Z,42.59
2023-05-01T06:56:32.558Z,42.35
2023-05-01T06:57:34.913Z,41.72
2023-05-01T06:58:37.619Z,42.03
2023-05-01T06:59:40.521Z,42.20
2023-05-01T07:00:42.865Z,42.28
2023-05-01T07:01:45.486Z,42.04
2023-05-01T07:02:47.879Z,41.96
2023-05-01T07:03:50.211Z,41.63
2023-05-01T07:04:53.466Z,41.26
2023-05-01T07:05:56.216Z,41.39
2023-05-01T07:06:58.648Z,40.95
2023-05-01T07:08:02.082Z,40.42
2023-05-01T07:09:05.970Z,40.25
2023-05-01T07:10:08.917Z,39.73
2023-05-01T07:11:11.227Z,40.16
2023-05-01T07:12:13.687Z,40.49
2023-05-01T07:13:17.597Z,40.18
2023-05-01T07:14:19.848Z,39.10
2023-05-01T07:15:23.721Z,37.92
2023-05-01T07:16:25.996Z,38.19
2023-05-01T07:17:29.728Z,38.30
2023-05-01T07:18:32.279Z,38.38
2023-05-01T07:19:34.967Z,38.32
2023-05-01T07:20:37.213Z,38.50
2023-05-01T07:21:41.140Z,38.44
2023-05-01T07:22:43.794Z,38.07
2023-05-01T07:23:46.550Z,37.32
2023-05-01T07:24:49.047Z,37.56
2023-05-01T07:25:52.066Z,36.85
2023-05-01T07:26:54.302Z,37.09
2023-05-01T07:27:56.801Z,37.18
2023-05-01T07:28:59.060Z,36.64
2023-05-01T07:30:05.310Z,36.80
2023-05-01T07:31:10.219Z,36.69
2023-05-01T07:32:12.541Z,36.82
2023-05-01T07:33:15.066Z,36.86
2023-05-01T07:34:18.397Z,36.58
2023-05-01T07:35:20.689Z,35.89
2023-05-01T07:36:26.659Z,36.12
2023-05-01T07:37:29.011Z,36.17
2023-05-01T07:38:31.493Z,35.87
2023-05-01T07:39:33.771Z,35.59
2023-05-01T07:40:36.844Z,35.92
2023-05-01T07:41:39.151Z,36.12
2023-05-01T07:42:42.095Z,36.07
2023-05-01T07:43:44.363Z,36.17
2023-05-01T07:44:47.106Z,36.21
2023-05-01T07:46:00.653Z,36.42
2023-05-01T07:47:06.551Z,36.48
2023-05-01T07:48:08.884Z,35.81
2023-05-01T07:49:11.176Z,35.23
2023-05-01T07:50:13.503Z,35.03
2023-05-01T07:51:15.721Z,35.54
2023-05-01T07:52:18.070Z,35.03
2023-05-01T07:53:20.599Z,35.47
2023-05-01T07:54:23.075Z,35.52
2023-05-01T07:55:25.512Z,35.36
2023-05-01T07:56:29.293Z,35.42
2023-05-01T07:57:33.711Z,35.23
2023-05-01T07:58:37.844Z,34.54
2023-05-01T07:59:40.080Z,34.25
2023-05-01T08:00:45.168Z,34.29
2023-05-01T08:01:47.592Z,34.76
2023-05-01T08:02:51.950Z,34.27
2023-05-01T08:03:54.369Z,33.88
2023-05-01T08:04:57.271Z,33.56
2023-05-01T08:05:59.618Z,33.53
2023-05-01T08:07:01.903Z,33.21
2023-05-01T08:08:04.430Z,33.19
2023-05-01T08:09:06.733Z,33.27
2023-05-01T08:10:09.458Z,33.15
2023-05-01T08:11:11.889Z,33.03
2023-05-01T08:12:14.319Z,32.74
2023-05-01T08:13:16.652Z,32.24
2023-05-01T08:14:19.592Z,32.12
2023-05-01T08:15:22.068Z,32.84
2023-05-01T08:16:24.594Z,32.43
2023-05-01T08:17:26.903Z,32.59
2023-05-01T08:18:30.035Z,32.92
2023-05-01T08:19:33.523Z,32.13
2023-05-01T08:20:36.699Z,32.31
2023-05-01T08:21:38.996Z,32.39
2023-05-01T08:22:41.268Z,32.45
2023-05-01T08:23:43.491Z,32.42
2023-05-01T08:24:46.028Z,32.44
2023-05-01T08:25:51.159Z,32.00
2023-05-01T08:26:53.484Z,31.44
2023-05-01T08:27:55.849Z,31.16
2023-05-01T08:28:58.199Z,30.57
2023-05-01T08:30:00.630Z,30.39
2023-05-01T08:31:03.857Z,30.06
2023-05-01T08:32:06.172Z,30.13
2023-05-01T08:33:08.586Z,30.04
2023-05-01T08:34:11.025Z,30.15
2023-05-01T08:35:13.284Z,30.00
2023-05-01T08:36:15.665Z,29.33
2023-05-01T08:37:19.308Z,29.66
2023-05-01T08:38:21.569Z,29.82
2023-05-01T08:39:23.846Z,30.05
2023-05-01T08:40:26.547Z,30.02
2023-05-01T08:41:29.383Z,29.78
2023-05-01T08:42:32.350Z,29.42
2023-05-01T08:43:34.818Z,29.06
2023-05-01T08:44:41.341Z,28.78
2023-05-01T08:45:44.738Z,28.64
2023-05-01T08:46:51.010Z,28.83
2023-05-01T08:47:55.464Z,28.98
2023-05-01T08:48:59.635Z,28.56
2023-05-01T08:50:03.758Z,27.97
2023-05-01T08:51:06.416Z,28.67
2023-05-01T08:52:11.731Z,28.33
2023-05-01T08:53:17.456Z,28.32
2023-05-01T08:54:21.054Z,28.32
2023-05-01T08:55:23.676Z,27.88
2023-05-01T08:56:25.952Z,28.00
2023-05-01T08:57:30.833Z,27.87
2023-05-01T08:58:35.624Z,27.74
2023-05-01T08:59:39.069Z,27.86
2023-05-01T09:00:42.965Z,27.87
2023-05-01T09:01:47.401Z,27.60
2023-05-01T09:02:51.968Z,28.04
2023-05-01T09:03:55.576Z,27.95
2023-05-01T09:05:01.221Z,28.22
2023-05-01T09:06:04.352Z,28.34
2023-05-01T09:07:07.368Z,28.55
2023-05-01T09:08:09.672Z,28.60
2023-05-01T09:09:12.120Z,28.56
2023-05-01T09:10:17.411Z,28.24
2023-05-01T09:11:20.524Z,28.48
2023-05-01T09:12:25.853Z,27.55
2023-05-01T09:13:28.187Z,27.92
2023-05-01T09:14:31.818Z,27.81
2023-05-01T09:15:34.335Z,28.34
2023-05-01T09:16:36.974Z,27.96
2023-05-01T09:17:43.083Z,28.16
2023-05-01T09:18:46.888Z,28.20
2023-05-01T09:19:50.339Z,28.13
2023-05-01T09:20:52.901Z,28.43
2023-05-01T09:21:56.101Z,28.61
2023-05-01T09:22:59.376Z,28.36
2023-05-01T09:24:02.915Z,28.30
2023-05-01T09:25:05.582Z,28.64
2023-05-01T09:26:08.659Z,28.83
2023-05-01T09:27:13.471Z,29.08
2023-05-01T09:28:16.076Z,28.75
2023-05-01T09:29:38.347Z,28.58
2023-05-01T09:30:40.772Z,27.95
2023-05-01T09:31:43.127Z,28.37
2023-05-01T09:32:45.661Z,27.78
2023-05-01T09:33:56.374Z,28.16
2023-05-01T09:35:15.430Z,28.20
2023-05-01T09:36:18.540Z,27.75
2023-05-01T09:37:34.293Z,28.03
2023-05-01T09:38:43.621Z,27.92
2023-05-01T09:39:46.029Z,27.78
2023-05-01T09:40:48.667Z,27.73
2023-05-01T09:41:54.916Z,27.99
2023-05-01T09:42:57.362Z,27.88
2023-05-01T09:43:59.844Z,27.90
2023-05-01T09:45:04.485Z,28.03
2023-05-01T09:46:12.127Z,27.31
2023-05-01T09:47:23.125Z,28.38
2023-05-01T09:48:25.780Z,28.08
2023-05-01T09:49:48.437Z,28.16
2023-05-01T09:50:50.697Z,27.85
2023-05-01T09:51:53.055Z,27.76
2023-05-01T09:52:55.511Z,27.77
2023-05-01T09:53:59.692Z,27.72
2023-05-01T09:55:18.307Z,27.94
2023-05-01T09:56:22.110Z,27.90
2023-05-01T09:57:38.482Z,28.30
2023-05-01T09:58:41.150Z,27.66
2023-05-01T09:59:43.475Z,27.30
2023-05-01T10:00:52.097Z,27.68
2023-05-01T10:01:54.954Z,27.78
2023-05-01T10:02:57.521Z,28.06
2023-05-01T10:04:02.561Z,27.57
2023-05-01T10:05:05.984Z,27.65
2023-05-01T10:06:10.033Z,27.58
2023-05-01T10:07:13.862Z,27.43
2023-05-01T10:08:16.767Z,27.21
2023-05-01T10:09:28.987Z,27.72
2023-05-01T10:10:31.437Z,27.87
2023-05-01T10:11:52.300Z,27.81
2023-05-01T10:12:55.098Z,27.62
2023-05-01T10:14:11.476Z,27.72
2023-05-01T10:15:24.492Z,27.85
2023-05-01T10:16:30.551Z,27.75
2023-05-01T10:17:34.213Z,27.77
2023-05-01T10:18:36.834Z,27.50
2023-05-01T10:19:39.090Z,27.85
2023-05-01T10:20:41.507Z,27.68
2023-05-01T10:21:44.265Z,27.40
2023-05-01T10:22:46.779Z,27.55
2023-05-01T10:23:49.131Z,27.85
2023-05-01T10:24:52.734Z,27.90
2023-05-01T10:25:56.935Z,27.78
2023-05-01T10:27:00.238Z,27.47
2023-05-01T10:28:04.948Z,27.37
2023-05-01T10:29:07.395Z,27.36
2023-05-01T10:30:10.464Z,27.49
2023-05-01T10:31:13.501Z,27.39
2023-05-01T10:32:16.125Z,27.58
2023-05-01T10:33:18.662Z,27.23
2023-05-01T10:34:24.171Z,27.47
2023-05-01T10:35:38.355Z,27.76
2023-05-01T10:36:47.625Z,27.91
2023-05-01T10:37:59.904Z,27.80
2023-05-01T10:39:02.273Z,27.75
2023-05-01T10:40:39.981Z,27.95
2023-05-01T10:42:04.005Z,27.89
2023-05-01T10:43:16.319Z,28.03
2023-05-01T10:44:23.697Z,27.92
2023-05-01T10:45:30.284Z,28.22
2023-05-01T10:46:32.664Z,28.49
2023-05-01T10:47:35.497Z,28.18
2023-05-01T10:48:37.729Z,28.22
2023-05-01T10:50:12.458Z,28.18
2023-05-01T10:51:15.928Z,28.15
2023-05-01T10:52:18.205Z,27.38
2023-05-01T10:53:20.566Z,27.39
2023-05-01T10:54:23.960Z,27.16
2023-05-01T10:55:36.841Z,27.58
2023-05-01T10:56:39.065Z,27.63
2023-05-01T10:57:43.915Z,27.84
2023-05-01T10:58:51.709Z,27.35
2023-05-01T11:00:00.481Z,27.37
2023-05-01T11:01:28.196Z,27.50
2023-05-01T11:02:31.044Z,27.60
2023-05-01T11:03:33.541Z,27.38
2023-05-01T11:04:48.639Z,27.65
2023-05-01T11:06:00.149Z,27.97
2023-05-01T11:07:06.008Z,28.14
2023-05-01T11:08:34.091Z,28.15
2023-05-01T11:09:40.403Z,28.13
2023-05-01T11:11:35.194Z,28.59
2023-05-01T11:12:49.341Z,28.36
2023-05-01T11:14:04.390Z,28.81
2023-05-01T11:15:08.497Z,28.52
2023-05-01T11:16:42.383Z,28.81
2023-05-01T11:17:45.775Z,28.50
2023-05-01T11:18:48.228Z,27.94
2023-05-01T11:19:52.633Z,28.11
2023-05-01T11:20:55.083Z,27.89
2023-05-01T11:21:57.583Z,28.29
2023-05-01T11:22:59.880Z,28.49
2023-05-01T11:24:05.426Z,28.34
2023-05-01T11:25:28.033Z,28.25
2023-05-01T11:26:32.476Z,27.96
2023-05-01T11:27:35.125Z,27.99
2023-05-01T11:28:42.187Z,27.99
2023-05-01T11:29:46.367Z,28.21
2023-05-01T11:30:49.318Z,28.60
2023-05-01T11:31:52.364Z,28.37
2023-05-01T11:32:54.935Z,28.28
2023-05-01T11:33:58.698Z,27.87
2023-05-01T11:35:01.160Z,27.86
2023-05-01T11:36:05.143Z,27.71
2023-05-01T11:37:07.478Z,27.72
2023-05-01T11:38:19.515Z,27.72
2023-05-01T11:39:22.366Z,27.86
2023-05-01T11:40:33.126Z,28.02
2023-05-01T11:41:35.547Z,28.26
2023-05-01T11:42:38.517Z,28.14
2023-05-01T11:43:58.642Z,27.99
2023-05-01T11:45:13.467Z,28.10
2023-05-01T11:46:24.117Z,27.90
2023-05-01T11:47:26.712Z,27.83
2023-05-01T11:48:30.399Z,27.83
2023-05-01T11:49:32.926Z,27.67
2023-05-01T11:50:39.202Z,28.06
2023-05-01T11:51:41.678Z,28.13
2023-05-01T11:52:45.111Z,27.84
2023-05-01T11:54:03.888Z,27.93
2023-05-01T11:55:07.415Z,27.83
2023-05-01T11:57:27.896Z,27.70
2023-05-01T11:58:32.923Z,27.83
2023-05-01T11:59:35.234Z,27.95
2023-05-01T12:00:42.187Z,27.20
2023-05-01T12:01:46.550Z,27.20
2023-05-01T12:03:10.401Z,27.48
2023-05-01T12:04:22.882Z,27.36
2023-05-01T12:05:26.878Z,27.61
2023-05-01T12:06:43.920Z,27.45
2023-05-01T12:07:46.665Z,27.44
2023-05-01T12:08:51.586Z,27.48
2023-05-01T12:09:54.138Z,27.28
2023-05-01T12:10:57.567Z,27.57
2023-05-01T12:12:03.999Z,27.66
2023-05-01T12:13:08.697Z,28.09
2023-05-01T12:14:14.194Z,27.59
2023-05-01T12:15:22.730Z,27.68
2023-05-01T12:16:27.894Z,27.49
2023-05-01T12:17:31.071Z,27.81
2023-05-01T12:18:33.689Z,27.67
2023-05-01T12:19:48.957Z,28.01
2023-05-01T12:20:53.326Z,28.02
2023-05-01T12:22:11.104Z,27.82
2023-05-01T12:23:18.652Z,27.38
2023-05-01T12:24:21.200Z,27.71
2023-05-01T12:25:30.366Z,27.36
2023-05-01T12:26:32.829Z,27.35
2023-05-01T12:27:43.668Z,27.74
2023-05-01T12:29:04.422Z,27.81
2023-05-01T12:30:07.652Z,27.67
2023-05-01T12:31:11.056Z,27.23
2023-05-01T12:32:17.436Z,27.44
2023-05-01T12:33:21.375Z,27.16
2023-05-01T12:34:31.951Z,27.50
2023-05-01T12:35:34.723Z,27.50
2023-05-01T12:36:37.740Z,27.70
2023-05-01T12:37:40.245Z,27.55
2023-05-01T12:39:03.109Z,27.79
2023-05-01T12:40:06.493Z,26.93
2023-05-01T12:41:11.939Z,27.15
2023-05-01T12:42:15.604Z,27.04
2023-05-01T12:43:20.025Z,27.06
2023-05-01T12:44:27.595Z,27.52
2023-05-01T12:45:30.106Z,27.45
2023-05-01T12:46:32.595Z,27.66
2023-05-01T12:47:40.737Z,27.78
2023-05-01T12:48:43.229Z,27.71
2023-05-01T12:49:45.862Z,27.88
2023-05-01T12:50:54.766Z,28.12
2023-05-01T12:51:59.504Z,27.54
2023-05-01T12:53:03.334Z,27.68
2023-05-01T12:54:05.853Z,27.95
2023-05-01T12:55:09.284Z,28.18
2023-05-01T12:56:23.831Z,27.99
2023-05-01T12:57:26.912Z,27.60
2023-05-01T12:58:38.890Z,27.72
2023-05-01T12:59:43.671Z,27.26
2023-05-01T13:00:56.091Z,27.12
2023-05-01T13:02:04.329Z,27.33
2023-05-01T13:03:06.953Z,27.35
2023-05-01T13:04:12.107Z,27.28
2023-05-01T13:05:14.533Z,27.50
2023-05-01T13:06:17.159Z,27.48
2023-05-01T13:07:19.826Z,27.45
2023-05-01T13:08:36.683Z,27.37
2023-05-01T13:09:42.091Z,27.07
2023-05-01T13:10:44.834Z,27.01
2023-05-01T13:11:57.028Z,26.98
2023-05-01T13:12:59.559Z,26.73
2023-05-01T13:14:09.123Z,26.79
2023-05-01T13:15:22.084Z,27.17
2023-05-01T13:16:25.353Z,27.49
2023-05-01T13:17:33.084Z,27.37
2023-05-01T13:18:52.547Z,27.33
2023-05-01T13:20:09.175Z,27.93
2023-05-01T13:21:14.848Z,27.56
2023-05-01T13:22:17.367Z,27.21
2023-05-01T13:23:20.855Z,27.34
2023-05-01T13:24:24.087Z,27.48
2023-05-01T13:25:26.964Z,27.50
2023-05-01T13:26:35.416Z,27.58
2023-05-01T13:27:37.952Z,27.66
2023-05-01T13:28:48.694Z,27.50
2023-05-01T13:29:59.957Z,27.53
2023-05-01T13:31:02.876Z,27.82
2023-05-01T13:32:06.546Z,27.92
2023-05-01T13:33:11.142Z,27.99
2023-05-01T13:34:21.702Z,27.50
2023-05-01T13:35:25.851Z,27.56
2023-05-01T13:36:33.461Z,27.67
2023-05-01T13:37:36.610Z,27.53
2023-05-01T13:38:47.366Z,27.55
2023-05-01T13:39:49.896Z,27.61
2023-05-01T13:40:52.290Z,27.26
2023-05-01T13:41:54.756Z,26.97
2023-05-01T13:42:57.386Z,27.16
2023-05-01T13:43:59.731Z,26.66
2023-05-01T13:45:05.909Z,26.71
2023-05-01T13:46:10.048Z,26.91
2023-05-01T13:47:17.786Z,26.61
2023-05-01T13:48:26.446Z,26.99
2023-05-01T13:49:28.867Z,26.45
2023-05-01T13:50:32.245Z,26.42
2023-05-01T13:51:38.041Z,26.50
2023-05-01T13:52:44.393Z,26.79
2023-05-01T13:53:47.029Z,26.69
2023-05-01T13:54:49.833Z,26.48
2023-05-01T13:55:52.261Z,26.82
2023-05-01T13:56:54.859Z,26.58
2023-05-01T13:57:57.634Z,26.82
2023-05-01T13:59:00.880Z,27.32
2023-05-01T14:00:05.432Z,26.94
2023-05-01T14:01:17.299Z,27.13
2023-05-01T14:02:27.757Z,27.13
2023-05-01T14:03:42.738Z,26.98